createdAt,value
2019-05-01T00:00:12.282Z,0
2019-05-01T00:01:24.412Z,0
2019-05-01T00:02:36.621Z,0
2019-05-01T00:03:48.751Z,0
2019-05-01T00:05:00.992Z,0
2019-05-01T00:06:13.250Z,0
2019-05-01T00:07:25.351Z,0
2019-05-01T00:08:37.639Z,0
2019-05-01T00:11:02.084Z,0
2019-05-01T00:13:26.402Z,0
2019-05-01T00:15:50.730Z,0
2019-05-01T00:17:02.974Z,0
2019-05-01T00:18:15.176Z,0
2019-05-01T00:19:27.294Z,0
2019-05-01T00:20:39.551Z,0
2019-05-01T00:23:08.877Z,0
2019-05-01T00:24:16.157Z,0
2019-05-01T00:25:28.297Z,0
2019-05-01T00:26:40.483Z,0
2019-05-01T00:27:52.771Z,0
2019-05-01T00:29:04.868Z,0
2019-05-01T00:30:17.265Z,0
2019-05-01T00:31:29.268Z,0
2019-05-01T00:32:41.471Z,0
2019-05-01T00:36:18.208Z,0
2019-05-01T00:37:30.345Z,0
2019-05-01T00:38:42.472Z,0
2019-05-01T00:39:54.700Z,0
2019-05-01T00:41:06.834Z,0
2019-05-01T00:42:19.010Z,0
2019-05-01T00:43:34.158Z,0
2019-05-01T00:44:43.395Z,0
2019-05-01T00:47:07.871Z,0
2019-05-01T00:49:32.324Z,0
2019-05-01T00:50:44.447Z,0
2019-05-01T00:53:08.779Z,0
2019-05-01T00:54:21.102Z,0
2019-05-01T00:55:33.178Z,0
2019-05-01T00:59:09.782Z,0
2019-05-01T01:01:34.132Z,0
2019-05-01T01:02:46.358Z,0
2019-05-01T01:03:58.651Z,0
2019-05-01T01:05:10.718Z,0
2019-05-01T01:06:22.908Z,0
2019-05-01T01:07:35.177Z,0
2019-05-01T01:08:49.123Z,0
2019-05-01T01:11:11.992Z,0
2019-05-01T01:13:36.086Z,0
2019-05-01T01:14:48.396Z,0
2019-05-01T01:16:00.482Z,0
2019-05-01T01:17:12.680Z,0
2019-05-01T01:19:37.141Z,0
2019-05-01T01:20:49.251Z,0
2019-05-01T01:23:13.681Z,0
2019-05-01T01:25:38.524Z,0
2019-05-01T01:26:50.489Z,0
2019-05-01T01:28:02.873Z,0
2019-05-01T01:29:14.663Z,0
2019-05-01T01:30:26.929Z,0
2019-05-01T01:31:39.241Z,0
2019-05-01T01:32:51.473Z,0
2019-05-01T01:35:15.627Z,0
2019-05-01T01:36:27.862Z,0
2019-05-01T01:37:40.029Z,0
2019-05-01T01:40:04.489Z,0
2019-05-01T01:41:16.591Z,0
2019-05-01T01:42:28.873Z,0
2019-05-01T01:43:41.241Z,0
2019-05-01T01:44:53.254Z,0
2019-05-01T01:47:17.656Z,0
2019-05-01T01:49:41.951Z,0
2019-05-01T01:50:54.230Z,0
2019-05-01T01:52:06.490Z,0
2019-05-01T01:53:18.547Z,0
2019-05-01T01:55:42.937Z,0
2019-05-01T01:56:55.148Z,0
2019-05-01T01:59:19.594Z,0
2019-05-01T02:00:31.873Z,0
2019-05-01T02:01:43.901Z,0
2019-05-01T02:02:56.116Z,0
2019-05-01T02:04:08.290Z,0
2019-05-01T02:05:20.554Z,0
2019-05-01T02:06:32.690Z,0
2019-05-01T02:07:44.898Z,0
2019-05-01T02:08:57.249Z,0
2019-05-01T02:11:21.597Z,0
2019-05-01T02:13:45.943Z,0
2019-05-01T02:17:22.471Z,0
2019-05-01T02:18:34.749Z,0
2019-05-01T02:19:46.976Z,0
2019-05-01T02:20:59.079Z,0
2019-05-01T02:23:23.614Z,0
2019-05-01T02:24:35.787Z,0
2019-05-01T02:25:54.870Z,0
2019-05-01T02:27:00.025Z,0
2019-05-01T02:28:12.227Z,0
2019-05-01T02:29:24.791Z,0
2019-05-01T02:30:36.712Z,0
2019-05-01T02:31:48.874Z,0
2019-05-01T02:33:01.015Z,0
2019-05-01T02:35:25.470Z,0
2019-05-01T02:37:49.834Z,0
2019-05-01T02:39:03.665Z,0
2019-05-01T02:41:26.455Z,0
2019-05-01T02:42:38.558Z,0
2019-05-01T02:43:50.780Z,0
2019-05-01T02:47:27.463Z,0
2019-05-01T02:49:51.761Z,0
2019-05-01T02:52:16.406Z,0
2019-05-01T02:53:28.317Z,0
2019-05-01T02:54:40.588Z,0
2019-05-01T02:55:55.971Z,0
2019-05-01T02:57:04.902Z,0
2019-05-01T03:00:41.717Z,0
2019-05-01T03:01:53.698Z,0
2019-05-01T03:04:18.157Z,0
2019-05-01T03:05:30.292Z,0
2019-05-01T03:06:42.569Z,0
2019-05-01T03:07:54.726Z,0
2019-05-01T03:11:31.274Z,0
2019-05-01T03:13:55.871Z,0
2019-05-01T03:16:20.233Z,0
2019-05-01T03:17:32.239Z,0
2019-05-01T03:18:44.497Z,0
2019-05-01T03:19:56.619Z,0
2019-05-01T03:23:33.230Z,0
2019-05-01T03:24:45.564Z,0
2019-05-01T03:25:57.687Z,0
2019-05-01T03:27:09.867Z,0
2019-05-01T03:28:22.172Z,0
2019-05-01T03:29:34.210Z,0
2019-05-01T03:30:49.360Z,0
2019-05-01T03:31:58.589Z,0
2019-05-01T03:33:10.862Z,0
2019-05-01T03:35:35.347Z,4
2019-05-01T03:37:59.567Z,4
2019-05-01T03:39:11.858Z,0
2019-05-01T03:40:23.987Z,4
2019-05-01T03:41:36.383Z,4
2019-05-01T03:42:48.415Z,8
2019-05-01T03:44:01.198Z,4
2019-05-01T03:45:12.888Z,8
2019-05-01T03:47:37.116Z,8
2019-05-01T03:50:01.647Z,12
2019-05-01T03:51:13.825Z,16
2019-05-01T03:52:25.946Z,20
2019-05-01T03:53:38.102Z,20
2019-05-01T03:54:50.386Z,24
2019-05-01T03:56:02.505Z,28
2019-05-01T03:57:14.864Z,32
2019-05-01T03:59:39.168Z,36
2019-05-01T04:00:51.409Z,40
2019-05-01T04:02:03.466Z,48
2019-05-01T04:03:15.795Z,52
2019-05-01T04:05:40.071Z,68
2019-05-01T04:06:56.927Z,72
2019-05-01T04:08:04.439Z,88
2019-05-01T04:09:16.684Z,96
2019-05-01T04:14:05.479Z,140
2019-05-01T04:15:17.724Z,148
2019-05-01T04:16:29.932Z,156
2019-05-01T04:17:42.028Z,164
2019-05-01T04:18:54.308Z,192
2019-05-01T04:20:06.446Z,208
2019-05-01T04:21:18.636Z,220
2019-05-01T04:23:42.994Z,248
2019-05-01T04:24:55.263Z,240
2019-05-01T04:26:07.858Z,268
2019-05-01T04:28:31.779Z,316
2019-05-01T04:29:43.965Z,332
2019-05-01T04:30:56.191Z,348
2019-05-01T04:32:08.373Z,380
2019-05-01T04:35:44.934Z,500
2019-05-01T04:36:57.164Z,424
2019-05-01T04:38:09.380Z,436
2019-05-01T04:39:21.544Z,468
2019-05-01T04:40:33.721Z,532
2019-05-01T04:41:45.955Z,604
2019-05-01T04:44:10.313Z,620
2019-05-01T04:45:22.512Z,620
2019-05-01T04:47:46.916Z,668
2019-05-01T04:50:11.283Z,676
2019-05-01T04:51:23.670Z,660
2019-05-01T04:52:35.683Z,708
2019-05-01T04:53:47.902Z,764
2019-05-01T04:56:12.282Z,832
2019-05-01T04:57:24.542Z,816
2019-05-01T04:59:48.918Z,840
2019-05-01T05:02:13.290Z,940
2019-05-01T05:03:25.426Z,968
2019-05-01T05:04:37.613Z,984
2019-05-01T05:05:49.828Z,1080
2019-05-01T05:07:02.036Z,1136
2019-05-01T05:08:14.294Z,1164
2019-05-01T05:09:26.501Z,1232
2019-05-01T05:11:50.826Z,1352
2019-05-01T05:14:15.185Z,1456
2019-05-01T05:15:27.387Z,1472
2019-05-01T05:17:51.784Z,1632
2019-05-01T05:19:03.966Z,1748
2019-05-01T05:20:16.166Z,1764
2019-05-01T05:21:28.390Z,1756
2019-05-01T05:25:08.265Z,1716
2019-05-01T05:26:17.190Z,1768
2019-05-01T05:27:29.384Z,1836
2019-05-01T05:28:41.569Z,1872
2019-05-01T05:29:53.810Z,1964
2019-05-01T05:32:18.113Z,2024
2019-05-01T05:33:30.309Z,2072
2019-05-01T05:35:54.805Z,2108
2019-05-01T05:38:20.547Z,2148
2019-05-01T05:39:31.317Z,2216
2019-05-01T05:40:43.571Z,2304
2019-05-01T05:41:55.829Z,2376
2019-05-01T05:43:07.879Z,2388
2019-05-01T05:44:20.064Z,2328
2019-05-01T05:45:32.325Z,2260
2019-05-01T05:50:21.042Z,2060
2019-05-01T05:51:33.321Z,1976
2019-05-01T05:52:45.602Z,1972
2019-05-01T05:53:57.636Z,1988
2019-05-01T05:55:09.830Z,2092
2019-05-01T05:56:22.044Z,2164
2019-05-01T05:57:34.918Z,2144
2019-05-01T05:59:58.721Z,2048
2019-05-01T06:01:10.801Z,2088
2019-05-01T06:02:22.989Z,2164
2019-05-01T06:03:35.305Z,2188
2019-05-01T06:04:47.399Z,2196
2019-05-01T06:05:59.593Z,2292
2019-05-01T06:07:11.897Z,2364
2019-05-01T06:08:23.984Z,2416
2019-05-01T06:09:36.175Z,2476
2019-05-01T06:12:00.568Z,2504
2019-05-01T06:14:25.190Z,2596
2019-05-01T06:18:01.656Z,2692
2019-05-01T06:19:14.490Z,2748
2019-05-01T06:20:25.949Z,2832
2019-05-01T06:21:38.244Z,2876
2019-05-01T06:24:02.542Z,2864
2019-05-01T06:25:14.832Z,2896
2019-05-01T06:26:27.339Z,2940
2019-05-01T06:27:39.200Z,2980
2019-05-01T06:30:03.583Z,3076
2019-05-01T06:32:27.875Z,3264
2019-05-01T06:33:40.091Z,3304
2019-05-01T06:36:04.558Z,3392
2019-05-01T06:39:41.170Z,3652
2019-05-01T06:40:53.331Z,3744
2019-05-01T06:42:05.505Z,3740
2019-05-01T06:43:17.741Z,3620
2019-05-01T06:44:29.823Z,3604
2019-05-01T06:45:42.031Z,3704
2019-05-01T06:48:06.440Z,4108
2019-05-01T06:50:30.904Z,4100
2019-05-01T06:51:43.135Z,4092
2019-05-01T06:52:55.174Z,4172
2019-05-01T06:54:07.369Z,4196
2019-05-01T06:55:19.864Z,4144
2019-05-01T06:56:31.970Z,4168
2019-05-01T06:57:44.034Z,4348
2019-05-01T07:00:08.345Z,4684
2019-05-01T07:02:32.832Z,4664
2019-05-01T07:06:09.321Z,4520
2019-05-01T07:07:21.539Z,4376
2019-05-01T07:08:33.708Z,4360
2019-05-01T07:09:46.046Z,4340
2019-05-01T07:14:34.685Z,3788
2019-05-01T07:15:49.169Z,3680
2019-05-01T07:16:59.042Z,3628
2019-05-01T07:18:11.370Z,3616
2019-05-01T07:19:23.513Z,3504
2019-05-01T07:20:35.716Z,3524
2019-05-01T07:24:12.248Z,3428
2019-05-01T07:29:00.997Z,3404
2019-05-01T07:30:13.180Z,3496
2019-05-01T07:31:25.557Z,3548
2019-05-01T07:32:37.560Z,3728
2019-05-01T07:33:50.013Z,3968
2019-05-01T07:36:14.163Z,3964
2019-05-01T07:37:26.497Z,3800
2019-05-01T07:38:38.570Z,3816
2019-05-01T07:39:50.811Z,3912
2019-05-01T07:41:03.032Z,3904
2019-05-01T07:42:15.130Z,4020
2019-05-01T07:44:39.522Z,4048
2019-05-01T07:45:51.811Z,4224
2019-05-01T07:49:28.401Z,4352
2019-05-01T07:50:40.493Z,4276
2019-05-01T07:51:52.948Z,4180
2019-05-01T07:53:05.566Z,4216
2019-05-01T07:54:17.101Z,4328
2019-05-01T07:55:29.423Z,4516
2019-05-01T07:56:41.452Z,4356
2019-05-01T08:00:18.039Z,3928
2019-05-01T08:03:54.784Z,4568
2019-05-01T08:05:06.834Z,4772
2019-05-01T08:06:19.106Z,4772
2019-05-01T08:07:31.207Z,4692
2019-05-01T08:08:43.529Z,4748
2019-05-01T08:09:55.690Z,4776
2019-05-01T08:13:32.325Z,4752
2019-05-01T08:14:44.382Z,4948
2019-05-01T08:17:08.937Z,4872
2019-05-01T08:18:20.986Z,4980
2019-05-01T08:19:33.238Z,4748
2019-05-01T08:20:45.354Z,4848
2019-05-01T08:21:57.584Z,4784
2019-05-01T08:24:21.965Z,4564
2019-05-01T08:26:46.367Z,4680
2019-05-01T08:27:58.538Z,4936
2019-05-01T08:29:10.673Z,4876
2019-05-01T08:30:22.928Z,4900
2019-05-01T08:31:35.252Z,4880
2019-05-01T08:32:47.266Z,5000
2019-05-01T08:33:59.454Z,5124
2019-05-01T08:36:23.925Z,5480
2019-05-01T08:37:36.153Z,5728
2019-05-01T08:41:12.619Z,6024
2019-05-01T08:42:24.804Z,5888
2019-05-01T08:43:37.213Z,5828
2019-05-01T08:44:49.194Z,5752
2019-05-01T08:46:01.483Z,5816
2019-05-01T08:48:25.774Z,5720
2019-05-01T08:50:50.309Z,5824
2019-05-01T08:52:02.491Z,5764
2019-05-01T08:54:26.748Z,5772
2019-05-01T08:55:39.303Z,5848
2019-05-01T08:56:51.157Z,6056
2019-05-01T08:58:03.355Z,6332
2019-05-01T09:01:40.031Z,6248
2019-05-01T09:04:04.429Z,6228
2019-05-01T09:05:16.502Z,6156
2019-05-01T09:06:28.720Z,6372
2019-05-01T09:08:53.266Z,6436
2019-05-01T09:10:05.353Z,6404
2019-05-01T09:12:29.771Z,6128
2019-05-01T09:16:06.284Z,6276
2019-05-01T09:17:18.514Z,6404
2019-05-01T09:18:30.620Z,6316
2019-05-01T09:19:42.815Z,6188
2019-05-01T09:20:55.006Z,6012
2019-05-01T09:22:07.275Z,5932
2019-05-01T09:26:55.981Z,6436
2019-05-01T09:28:08.271Z,6444
2019-05-01T09:29:20.508Z,6028
2019-05-01T09:30:32.603Z,5848
2019-05-01T09:31:44.759Z,5988
2019-05-01T09:32:57.029Z,6156
2019-05-01T09:34:09.172Z,6184
2019-05-01T09:36:33.643Z,5680
2019-05-01T09:37:45.824Z,5748
2019-05-01T09:38:58.032Z,6040
2019-05-01T09:40:10.243Z,6468
2019-05-01T09:41:22.476Z,6484
2019-05-01T09:42:34.502Z,6544
2019-05-01T09:46:11.125Z,6536
2019-05-01T09:48:35.768Z,6256
2019-05-01T09:49:47.676Z,6376
2019-05-01T09:51:00.010Z,6356
2019-05-01T09:53:24.292Z,6464
2019-05-01T09:54:36.630Z,6588
2019-05-01T09:57:00.977Z,6468
2019-05-01T09:58:13.150Z,6612
2019-05-01T10:01:49.767Z,7180
2019-05-01T10:03:01.931Z,7404
2019-05-01T10:04:14.126Z,7656
2019-05-01T10:06:38.505Z,7704
2019-05-01T10:09:02.881Z,8096
2019-05-01T10:10:15.055Z,8512
2019-05-01T10:12:39.594Z,8592
2019-05-01T10:15:03.743Z,8912
2019-05-01T10:17:28.118Z,9488
2019-05-01T10:18:40.451Z,10016
2019-05-01T10:19:52.560Z,10500
2019-05-01T10:21:04.704Z,10520
2019-05-01T10:24:41.340Z,9588
2019-05-01T10:25:57.343Z,9952
2019-05-01T10:27:05.904Z,10288
2019-05-01T10:28:17.872Z,10016
2019-05-01T10:29:30.066Z,9492
2019-05-01T10:30:42.249Z,9164
2019-05-01T10:31:54.445Z,9080
2019-05-01T10:33:06.737Z,9164
2019-05-01T10:34:18.934Z,9316
2019-05-01T10:36:43.239Z,9208
2019-05-01T10:39:07.717Z,9032
2019-05-01T10:41:32.218Z,8580
2019-05-01T10:42:44.208Z,8812
2019-05-01T10:45:08.597Z,9288
2019-05-01T10:46:20.776Z,9292
2019-05-01T10:48:45.343Z,9368
2019-05-01T10:49:57.345Z,9780
2019-05-01T10:51:09.737Z,10172
2019-05-01T10:52:21.828Z,10492
2019-05-01T10:53:33.928Z,10592
2019-05-01T10:54:46.221Z,10504
2019-05-01T10:55:58.611Z,10788
2019-05-01T10:57:10.626Z,11480
2019-05-01T10:58:22.765Z,12460
2019-05-01T11:00:47.119Z,12664
2019-05-01T11:01:59.398Z,12456
2019-05-01T11:04:23.754Z,11796
2019-05-01T11:05:35.856Z,11772
2019-05-01T11:06:48.059Z,11832
2019-05-01T11:08:00.293Z,11724
2019-05-01T11:09:12.446Z,11832
2019-05-01T11:10:24.726Z,11884
2019-05-01T11:12:49.017Z,12124
2019-05-01T11:15:13.469Z,11732
2019-05-01T11:16:25.644Z,11196
2019-05-01T11:17:37.862Z,10988
2019-05-01T11:18:50.052Z,11604
2019-05-01T11:21:14.495Z,12360
2019-05-01T11:22:26.636Z,12312
2019-05-01T11:24:51.086Z,12444
2019-05-01T11:27:15.332Z,13748
2019-05-01T11:29:39.740Z,14108
2019-05-01T11:30:52.156Z,14340
2019-05-01T11:32:04.469Z,14552
2019-05-01T11:33:16.329Z,14992
2019-05-01T11:36:52.902Z,15720
2019-05-01T11:38:05.241Z,16336
2019-05-01T11:39:17.319Z,17440
2019-05-01T11:42:53.847Z,18080
2019-05-01T11:44:06.070Z,16864
2019-05-01T11:45:18.344Z,16608
2019-05-01T11:51:19.200Z,17088
2019-05-01T11:53:43.744Z,16248
2019-05-01T11:54:55.904Z,16992
2019-05-01T11:56:08.187Z,17920
2019-05-01T11:57:20.239Z,18752
2019-05-01T11:58:32.471Z,19072
2019-05-01T12:00:56.846Z,20768
2019-05-01T12:02:09.194Z,24768
2019-05-01T12:03:21.408Z,23680
2019-05-01T12:04:33.415Z,23936
2019-05-01T12:06:57.748Z,23200
2019-05-01T12:08:09.991Z,20576
2019-05-01T12:09:22.108Z,21568
2019-05-01T12:12:58.701Z,22880
2019-05-01T12:14:11.123Z,22400
2019-05-01T12:15:23.201Z,21600
2019-05-01T12:16:35.482Z,21312
2019-05-01T12:17:47.468Z,20992
2019-05-01T12:18:59.735Z,21120
2019-05-01T12:21:24.068Z,21152
2019-05-01T12:22:36.334Z,20800
2019-05-01T12:26:13.241Z,19872
2019-05-01T12:29:49.577Z,21504
2019-05-01T12:31:01.776Z,21248
2019-05-01T12:33:25.985Z,23104
2019-05-01T12:37:02.647Z,21280
2019-05-01T12:40:39.200Z,20000
2019-05-01T12:43:03.545Z,20992
2019-05-01T12:44:15.904Z,20096
2019-05-01T12:45:27.915Z,18560
2019-05-01T12:49:04.581Z,19584
2019-05-01T12:51:28.987Z,19488
2019-05-01T12:52:41.195Z,19488
2019-05-01T12:53:53.282Z,19168
2019-05-01T12:55:05.469Z,19424
2019-05-01T12:56:17.966Z,18784
2019-05-01T12:57:29.879Z,17664
2019-05-01T12:58:42.133Z,17664
2019-05-01T13:02:18.733Z,17984
2019-05-01T13:03:30.911Z,18912
2019-05-01T13:04:43.091Z,17248
2019-05-01T13:05:55.282Z,17664
2019-05-01T13:07:07.736Z,17696
2019-05-01T13:09:35.905Z,15344
2019-05-01T13:13:08.503Z,13128
2019-05-01T13:14:20.783Z,12016
2019-05-01T13:15:32.744Z,11720
2019-05-01T13:16:45.035Z,12796
2019-05-01T13:17:57.140Z,12928
2019-05-01T13:19:09.356Z,11160
2019-05-01T13:21:33.713Z,11376
2019-05-01T13:22:46.051Z,11204
2019-05-01T13:25:10.565Z,10312
2019-05-01T13:26:22.602Z,9952
2019-05-01T13:27:34.690Z,10256
2019-05-01T13:28:47.049Z,9872
2019-05-01T13:29:59.091Z,10028
2019-05-01T13:31:11.443Z,9788
2019-05-01T13:32:23.457Z,9664
2019-05-01T13:33:35.690Z,9724
2019-05-01T13:34:47.977Z,9616
2019-05-01T13:38:24.421Z,9224
2019-05-01T13:39:36.714Z,9040
2019-05-01T13:40:49.344Z,9244
2019-05-01T13:42:01.088Z,8664
2019-05-01T13:43:13.223Z,8688
2019-05-01T13:44:25.408Z,8588
2019-05-01T13:45:37.673Z,8732
2019-05-01T13:46:49.832Z,8568
2019-05-01T13:49:14.245Z,8244
2019-05-01T13:50:26.357Z,8296
2019-05-01T13:51:38.660Z,8320
2019-05-01T13:54:03.036Z,7972
2019-05-01T13:55:19.680Z,7936
2019-05-01T13:57:39.595Z,7720
2019-05-01T13:58:51.958Z,7716
2019-05-01T14:01:16.101Z,7484
2019-05-01T14:02:28.484Z,7412
2019-05-01T14:06:05.478Z,7060
2019-05-01T14:07:17.059Z,7020
2019-05-01T14:09:41.479Z,6892
2019-05-01T14:14:30.342Z,6668
2019-05-01T14:15:42.470Z,6608
2019-05-01T14:19:19.035Z,6488
2019-05-01T14:21:43.501Z,6412
2019-05-01T14:22:55.578Z,6376
2019-05-01T14:25:20.231Z,6324
2019-05-01T14:26:32.373Z,6308
2019-05-01T14:31:21.081Z,6136
2019-05-01T14:32:33.198Z,6136
2019-05-01T14:33:45.384Z,6144
2019-05-01T14:37:21.952Z,6048
2019-05-01T14:38:34.167Z,5992
2019-05-01T14:43:22.946Z,5748
2019-05-01T14:44:35.065Z,5728
2019-05-01T14:45:47.261Z,5688
2019-05-01T14:50:36.151Z,5548
2019-05-01T14:55:24.899Z,5352
2019-05-01T14:57:49.259Z,5264
2019-05-01T14:59:01.382Z,5248
2019-05-01T15:01:25.937Z,5188
2019-05-01T15:02:38.055Z,5116
2019-05-01T15:05:02.455Z,4960
2019-05-01T15:07:26.808Z,4940
2019-05-01T15:08:38.997Z,4932
2019-05-01T15:09:51.130Z,4904
2019-05-01T15:13:27.734Z,4736
2019-05-01T15:14:40.163Z,4716
2019-05-01T15:17:04.473Z,4648
2019-05-01T15:19:28.887Z,4592
2019-05-01T15:21:53.066Z,4492
2019-05-01T15:25:29.875Z,4420
2019-05-01T15:27:54.023Z,4400
2019-05-01T15:29:06.531Z,4376
2019-05-01T15:31:30.670Z,4312
2019-05-01T15:33:55.077Z,4224
2019-05-01T15:35:07.221Z,4184
2019-05-01T15:37:31.841Z,4108
2019-05-01T15:38:48.930Z,4080
2019-05-01T15:41:08.257Z,4068
2019-05-01T15:42:20.476Z,4052
2019-05-01T15:43:32.687Z,4032
2019-05-01T15:45:56.992Z,3984
2019-05-01T15:47:09.289Z,3972
2019-05-01T15:49:33.496Z,3904
2019-05-01T15:50:45.687Z,3864
2019-05-01T15:55:34.651Z,3756
2019-05-01T15:56:46.772Z,3740
2019-05-01T15:57:58.868Z,3716
2019-05-01T15:59:11.069Z,3708
2019-05-01T16:02:47.685Z,3648
2019-05-01T16:06:24.346Z,3556
2019-05-01T16:07:36.483Z,3532
2019-05-01T16:10:00.804Z,3444
2019-05-01T16:14:49.666Z,3396
2019-05-01T16:18:26.254Z,3388
2019-05-01T16:19:38.386Z,3348
2019-05-01T16:22:05.234Z,3280
2019-05-01T16:25:39.376Z,3236
2019-05-01T16:26:51.561Z,3224
2019-05-01T16:28:03.746Z,3212
2019-05-01T16:29:16.152Z,3188
2019-05-01T16:30:28.171Z,3168
2019-05-01T16:31:40.332Z,3148
2019-05-01T16:32:53.698Z,3132
2019-05-01T16:34:04.743Z,3116
2019-05-01T16:35:16.882Z,3100
2019-05-01T16:37:41.417Z,3040
2019-05-01T16:38:53.456Z,3020
2019-05-01T16:40:05.662Z,3000
2019-05-01T16:41:17.880Z,2988
2019-05-01T16:42:30.140Z,2972
2019-05-01T16:43:42.249Z,2952
2019-05-01T16:46:06.800Z,2908
2019-05-01T16:47:18.870Z,2884
2019-05-01T16:50:55.443Z,2840
2019-05-01T16:52:07.773Z,2832
2019-05-01T16:53:19.799Z,2820
2019-05-01T16:54:32.090Z,2808
2019-05-01T16:55:44.716Z,2788
2019-05-01T16:56:56.419Z,2776
2019-05-01T16:58:08.580Z,2752
2019-05-01T16:59:20.912Z,2732
2019-05-01T17:01:45.160Z,2704
2019-05-01T17:02:57.359Z,2680
2019-05-01T17:04:09.569Z,2660
2019-05-01T17:05:21.848Z,2640
2019-05-01T17:06:33.934Z,2624
2019-05-01T17:07:46.134Z,2600
2019-05-01T17:08:58.338Z,2576
2019-05-01T17:10:10.521Z,2556
2019-05-01T17:11:22.843Z,2532
2019-05-01T17:13:47.116Z,2488
2019-05-01T17:14:59.375Z,2468
2019-05-01T17:16:11.534Z,2448
2019-05-01T17:17:23.720Z,2428
2019-05-01T17:18:36.071Z,2408
2019-05-01T17:19:48.179Z,2388
2019-05-01T17:21:00.329Z,2368
2019-05-01T17:22:12.497Z,2348
2019-05-01T17:23:24.711Z,2324
2019-05-01T17:25:49.117Z,2264
2019-05-01T17:27:01.348Z,2224
2019-05-01T17:28:13.479Z,2176
2019-05-01T17:29:25.697Z,2128
2019-05-01T17:30:37.888Z,2072
2019-05-01T17:31:50.043Z,2016
2019-05-01T17:33:02.285Z,1968
2019-05-01T17:34:14.429Z,1932
2019-05-01T17:37:51.427Z,1820
2019-05-01T17:39:03.267Z,1788
2019-05-01T17:40:15.410Z,1756
2019-05-01T17:41:27.624Z,1724
2019-05-01T17:42:39.829Z,1688
2019-05-01T17:43:52.054Z,1648
2019-05-01T17:45:04.211Z,1592
2019-05-01T17:46:16.455Z,1540
2019-05-01T17:47:28.571Z,1492
2019-05-01T17:49:52.965Z,1444
2019-05-01T17:51:05.443Z,1408
2019-05-01T17:52:17.369Z,1352
2019-05-01T17:53:29.597Z,1292
2019-05-01T17:54:41.837Z,1244
2019-05-01T17:55:57.442Z,1204
2019-05-01T17:57:06.232Z,1168
2019-05-01T17:58:18.375Z,1132
2019-05-01T17:59:30.517Z,1104
2019-05-01T18:01:54.913Z,1052
2019-05-01T18:03:07.132Z,1028
2019-05-01T18:04:19.420Z,996
2019-05-01T18:05:31.612Z,968
2019-05-01T18:06:43.705Z,944
2019-05-01T18:07:55.873Z,924
2019-05-01T18:09:08.177Z,908
2019-05-01T18:10:20.448Z,892
2019-05-01T18:13:56.885Z,824
2019-05-01T18:15:09.960Z,796
2019-05-01T18:16:21.403Z,764
2019-05-01T18:17:33.449Z,720
2019-05-01T18:18:45.656Z,684
2019-05-01T18:19:57.895Z,648
2019-05-01T18:21:10.134Z,616
2019-05-01T18:22:22.295Z,580
2019-05-01T18:27:11.167Z,504
2019-05-01T18:28:23.294Z,480
2019-05-01T18:29:35.481Z,460
2019-05-01T18:30:47.659Z,440
2019-05-01T18:31:59.804Z,416
2019-05-01T18:34:24.210Z,368
2019-05-01T18:35:36.470Z,348
2019-05-01T18:38:00.764Z,304
2019-05-01T18:39:13.182Z,288
2019-05-01T18:40:25.259Z,272
2019-05-01T18:41:37.379Z,252
2019-05-01T18:42:49.564Z,236
2019-05-01T18:44:01.944Z,220
2019-05-01T18:45:13.933Z,200
2019-05-01T18:46:26.140Z,184
2019-05-01T18:47:38.327Z,168
2019-05-01T18:50:02.766Z,140
2019-05-01T18:51:14.927Z,128
2019-05-01T18:52:27.096Z,116
2019-05-01T18:53:39.337Z,104
2019-05-01T18:54:52.927Z,88
2019-05-01T18:56:03.880Z,80
2019-05-01T18:57:15.946Z,72
2019-05-01T18:58:28.086Z,60
2019-05-01T18:59:40.270Z,56
2019-05-01T19:02:04.699Z,44
2019-05-01T19:03:16.919Z,36
2019-05-01T19:04:29.150Z,32
2019-05-01T19:05:41.380Z,28
2019-05-01T19:06:53.516Z,20
2019-05-01T19:08:05.821Z,20
2019-05-01T19:10:30.575Z,16
2019-05-01T19:11:42.293Z,12
2019-05-01T19:14:06.668Z,8
2019-05-01T19:15:18.831Z,8
2019-05-01T19:16:31.003Z,4
2019-05-01T19:17:43.305Z,4
2019-05-01T19:18:55.483Z,4
2019-05-01T19:20:07.622Z,4
2019-05-01T19:21:19.986Z,4
2019-05-01T19:22:32.090Z,4
2019-05-01T19:26:09.724Z,0
2019-05-01T19:27:20.883Z,0
2019-05-01T19:29:45.158Z,0
2019-05-01T19:30:57.377Z,0
2019-05-01T19:32:10.867Z,0
2019-05-01T19:33:21.853Z,0
2019-05-01T19:34:33.937Z,0
2019-05-01T19:35:46.136Z,0
2019-05-01T19:38:10.534Z,0
2019-05-01T19:39:22.718Z,0
2019-05-01T19:40:34.933Z,0
2019-05-01T19:41:47.114Z,0
2019-05-01T19:43:04.620Z,0
2019-05-01T19:44:11.529Z,0
2019-05-01T19:45:23.791Z,0
2019-05-01T19:46:37.891Z,0
2019-05-01T19:47:48.096Z,0
2019-05-01T19:50:12.691Z,0
2019-05-01T19:51:24.679Z,0
2019-05-01T19:53:49.153Z,0
2019-05-01T19:55:01.334Z,0
2019-05-01T19:56:13.694Z,0
2019-05-01T19:57:25.683Z,0
2019-05-01T19:58:37.848Z,0
2019-05-01T19:59:50.152Z,0
2019-05-01T20:02:14.528Z,0
2019-05-01T20:03:26.677Z,0
2019-05-01T20:04:38.827Z,0
2019-05-01T20:05:51.140Z,0
2019-05-01T20:07:03.237Z,0
2019-05-01T20:08:15.400Z,0
2019-05-01T20:09:27.594Z,0
2019-05-01T20:10:39.789Z,0
2019-05-01T20:11:52.048Z,0
2019-05-01T20:15:28.622Z,0
2019-05-01T20:16:40.806Z,0
2019-05-01T20:17:53.035Z,0
2019-05-01T20:19:05.227Z,0
2019-05-01T20:20:17.436Z,0
2019-05-01T20:21:29.609Z,0
2019-05-01T20:22:41.876Z,0
2019-05-01T20:23:54.034Z,0
2019-05-01T20:26:18.494Z,0
2019-05-01T20:27:30.531Z,0
2019-05-01T20:28:42.796Z,0
2019-05-01T20:29:54.940Z,0
2019-05-01T20:31:07.594Z,0
2019-05-01T20:32:19.374Z,0
2019-05-01T20:33:31.709Z,0
2019-05-01T20:34:43.725Z,0
2019-05-01T20:35:55.915Z,0
2019-05-01T20:38:20.365Z,0
2019-05-01T20:39:32.824Z,0
2019-05-01T20:40:44.685Z,0
2019-05-01T20:41:56.887Z,0
2019-05-01T20:43:09.195Z,0
2019-05-01T20:44:21.620Z,0
2019-05-01T20:45:33.491Z,0
2019-05-01T20:46:45.663Z,0
2019-05-01T20:47:57.937Z,0
2019-05-01T20:50:22.314Z,0
2019-05-01T20:51:34.446Z,0
2019-05-01T20:52:46.696Z,0
2019-05-01T20:53:58.931Z,0
2019-05-01T20:55:11.341Z,0
2019-05-01T20:56:23.793Z,0
2019-05-01T20:57:35.525Z,0
2019-05-01T20:58:49.888Z,0
2019-05-01T20:59:59.879Z,0
2019-05-01T21:02:24.359Z,0
2019-05-01T21:03:36.553Z,0
2019-05-01T21:04:48.803Z,0
2019-05-01T21:06:00.909Z,0
2019-05-01T21:07:13.069Z,0
2019-05-01T21:08:25.189Z,0
2019-05-01T21:09:37.427Z,0
2019-05-01T21:10:49.650Z,0
2019-05-01T21:14:26.328Z,0
2019-05-01T21:15:38.376Z,0
2019-05-01T21:16:50.685Z,0
2019-05-01T21:18:02.802Z,0
2019-05-01T21:19:14.974Z,0
2019-05-01T21:20:27.269Z,0
2019-05-01T21:21:39.360Z,0
2019-05-01T21:22:51.561Z,0
2019-05-01T21:24:03.775Z,0
2019-05-01T21:26:28.128Z,0
2019-05-01T21:27:40.324Z,0
2019-05-01T21:28:52.662Z,0
2019-05-01T21:30:04.807Z,0
2019-05-01T21:32:29.106Z,0
2019-05-01T21:33:41.423Z,0
2019-05-01T21:34:53.628Z,0
2019-05-01T21:36:05.720Z,0
2019-05-01T21:38:30.195Z,0
2019-05-01T21:39:42.274Z,0
2019-05-01T21:40:54.475Z,0
2019-05-01T21:42:06.800Z,0
2019-05-01T21:43:18.939Z,0
2019-05-01T21:44:31.072Z,0
2019-05-01T21:45:43.438Z,0
2019-05-01T21:46:55.502Z,0
2019-05-01T21:48:07.649Z,0
2019-05-01T21:50:32.139Z,0
2019-05-01T21:51:44.266Z,0
2019-05-01T21:52:56.608Z,0
2019-05-01T21:54:08.636Z,0
2019-05-01T21:55:20.908Z,0
2019-05-01T21:56:33.111Z,0
2019-05-01T21:57:45.323Z,0
2019-05-01T21:58:57.470Z,0
2019-05-01T22:00:09.584Z,0
2019-05-01T22:02:34.052Z,0
2019-05-01T22:03:46.190Z,0
2019-05-01T22:04:58.396Z,0
2019-05-01T22:06:10.660Z,0
2019-05-01T22:07:22.777Z,0
2019-05-01T22:08:35.024Z,0
2019-05-01T22:09:49.745Z,0
2019-05-01T22:10:59.392Z,0
2019-05-01T22:12:11.554Z,0
2019-05-01T22:14:35.961Z,0
2019-05-01T22:15:48.166Z,0
2019-05-01T22:17:00.334Z,0
2019-05-01T22:18:12.528Z,0
2019-05-01T22:19:30.346Z,0
2019-05-01T22:20:36.937Z,0
2019-05-01T22:21:49.127Z,0
2019-05-01T22:23:01.411Z,0
2019-05-01T22:24:13.494Z,0
2019-05-01T22:26:37.997Z,0
2019-05-01T22:27:50.344Z,0
2019-05-01T22:29:02.335Z,0
2019-05-01T22:30:14.481Z,0
2019-05-01T22:32:38.868Z,0
2019-05-01T22:33:51.056Z,0
2019-05-01T22:35:03.425Z,0
2019-05-01T22:36:15.556Z,0